createdAt,value
2019-01-21T00:02:28.164Z,90.39
2019-01-21T00:05:04.630Z,90.50
2019-01-21T00:07:39.860Z,90.50
2019-01-21T00:10:12.996Z,90.40
2019-01-21T00:12:55.166Z,90.73
2019-01-21T00:15:32.942Z,90.07
2019-01-21T00:18:11.432Z,89.80
2019-01-21T00:20:45.209Z,89.39
2019-01-21T00:23:18.510Z,90.04
2019-01-21T00:25:51.532Z,90.26
2019-01-21T00:28:25.088Z,90.34
2019-01-21T00:31:03.168Z,90.12
2019-01-21T00:33:36.802Z,89.77
2019-01-21T00:36:11.272Z,90.00
2019-01-21T00:38:44.042Z,89.67
2019-01-21T00:41:22.639Z,89.30
2019-01-21T00:43:58.452Z,90.26
2019-01-21T00:46:34.999Z,89.75
2019-01-21T00:49:10.816Z,89.70
2019-01-21T00:51:41.198Z,89.34
2019-01-21T00:54:13.677Z,88.27
2019-01-21T00:56:48.608Z,87.69
2019-01-21T00:59:17.346Z,88.24
2019-01-21T01:01:47.036Z,88.04
2019-01-21T01:04:16.637Z,88.48
2019-01-21T01:06:46.230Z,88.39
2019-01-21T01:09:15.860Z,88.13
2019-01-21T01:11:45.469Z,88.23
2019-01-21T01:14:15.134Z,88.14
2019-01-21T01:16:44.716Z,88.41
2019-01-21T01:19:14.302Z,88.69
2019-01-21T01:21:43.976Z,88.78
2019-01-21T01:24:13.990Z,88.78
2019-01-21T01:26:43.616Z,88.54
2019-01-21T01:29:13.242Z,88.58
2019-01-21T01:31:43.331Z,89.40
2019-01-21T01:34:12.895Z,89.49
2019-01-21T01:36:42.507Z,89.28
2019-01-21T01:39:12.147Z,88.66
2019-01-21T01:41:41.814Z,88.55
2019-01-21T01:44:11.452Z,88.83
2019-01-21T01:46:41.212Z,89.28
2019-01-21T01:49:11.091Z,89.53
2019-01-21T01:51:40.746Z,89.46
2019-01-21T01:54:10.431Z,89.07
2019-01-21T01:56:40.061Z,89.28
2019-01-21T01:59:09.931Z,88.77
2019-01-21T02:01:39.674Z,88.73
2019-01-21T02:04:09.433Z,88.44
2019-01-21T02:06:39.148Z,88.13
2019-01-21T02:09:09.112Z,88.01
2019-01-21T02:11:39.004Z,88.59
2019-01-21T02:14:08.757Z,88.35
2019-01-21T02:16:38.345Z,88.47
2019-01-21T02:19:08.071Z,87.81
2019-01-21T02:21:37.797Z,87.95
2019-01-21T02:24:08.618Z,88.32
2019-01-21T02:27:00.830Z,88.84
2019-01-21T02:29:51.193Z,88.80
2019-01-21T02:32:46.612Z,89.34
2019-01-21T02:35:34.071Z,89.54
2019-01-21T02:39:02.088Z,88.97
2019-01-21T02:41:40.951Z,89.43
2019-01-21T02:44:43.117Z,89.89
2019-01-21T02:47:43.581Z,90.05
2019-01-21T02:50:50.343Z,89.45
2019-01-21T02:54:02.026Z,89.20
2019-01-21T02:57:28.145Z,89.94
2019-01-21T03:00:17.152Z,89.98
2019-01-21T03:03:11.753Z,90.35
2019-01-21T03:06:28.344Z,89.75
2019-01-21T03:09:19.284Z,89.69
2019-01-21T03:12:22.169Z,89.96
2019-01-21T03:15:28.180Z,90.39
2019-01-21T03:18:25.129Z,89.89
2019-01-21T03:21:45.872Z,91.12
2019-01-21T03:24:36.314Z,90.63
2019-01-21T03:27:30.243Z,91.76
2019-01-21T03:30:22.358Z,91.96
2019-01-21T03:33:27.408Z,91.30
2019-01-21T03:36:41.377Z,90.70
2019-01-21T03:39:51.301Z,91.07
2019-01-21T03:42:46.504Z,92.18
2019-01-21T03:45:49.587Z,92.40
2019-01-21T03:48:34.110Z,92.08
2019-01-21T03:51:37.572Z,92.23
2019-01-21T03:54:20.588Z,90.74
2019-01-21T03:57:10.914Z,90.79
2019-01-21T03:59:59.058Z,90.85
2019-01-21T04:03:09.288Z,90.29
2019-01-21T04:06:07.778Z,90.72
2019-01-21T04:08:45.708Z,90.13
2019-01-21T04:11:47.536Z,90.23
2019-01-21T04:14:43.026Z,90.41
2019-01-21T04:17:50.656Z,90.43
2019-01-21T04:20:31.753Z,90.99
2019-01-21T04:23:34.444Z,90.43
2019-01-21T04:26:28.336Z,90.08
2019-01-21T04:29:39.926Z,90.64
2019-01-21T04:32:16.268Z,90.68
2019-01-21T04:35:28.600Z,89.61
2019-01-21T04:38:57.473Z,88.84
2019-01-21T04:42:05.615Z,88.71
2019-01-21T04:44:59.509Z,88.17
2019-01-21T04:47:49.339Z,88.44
2019-01-21T04:51:03.480Z,88.05
2019-01-21T04:54:23.808Z,88.58
2019-01-21T04:57:17.632Z,88.10
2019-01-21T05:00:25.882Z,87.53
2019-01-21T05:03:19.330Z,87.49
2019-01-21T05:06:35.180Z,87.05
2019-01-21T05:09:15.962Z,87.68
2019-01-21T05:12:18.697Z,87.57
2019-01-21T05:15:48.036Z,87.90
2019-01-21T05:18:48.564Z,88.20
2019-01-21T05:22:04.034Z,87.34
2019-01-21T05:25:34.330Z,86.81
2019-01-21T05:29:06.681Z,87.07
2019-01-21T05:31:58.444Z,87.19
2019-01-21T05:34:54.926Z,87.23
2019-01-21T05:37:50.467Z,87.78
2019-01-21T05:41:19.616Z,87.59
2019-01-21T05:44:16.017Z,87.94
2019-01-21T05:47:11.610Z,86.71
2019-01-21T05:50:31.404Z,87.02
2019-01-21T05:53:25.853Z,87.53
2019-01-21T05:56:27.824Z,88.15
2019-01-21T05:59:24.672Z,88.00
2019-01-21T06:02:22.494Z,87.41
2019-01-21T06:05:35.182Z,87.43
2019-01-21T06:08:42.109Z,86.89
2019-01-21T06:11:22.689Z,87.17
2019-01-21T06:14:42.921Z,87.66
2019-01-21T06:17:39.677Z,87.52
2019-01-21T06:20:42.053Z,86.89
2019-01-21T06:23:37.583Z,87.55
2019-01-21T06:26:32.236Z,86.82
2019-01-21T06:29:45.222Z,87.04
2019-01-21T06:32:48.268Z,86.81
2019-01-21T06:35:49.938Z,86.63
2019-01-21T06:38:54.592Z,86.14
2019-01-21T06:42:01.793Z,85.46
2019-01-21T06:45:02.621Z,85.63
2019-01-21T06:48:01.996Z,85.45
2019-01-21T06:50:50.271Z,85.55
2019-01-21T06:53:44.234Z,85.84
2019-01-21T06:57:04.406Z,85.29
2019-01-21T07:00:11.224Z,85.16
2019-01-21T07:03:26.372Z,84.82
2019-01-21T07:06:23.293Z,85.20
2019-01-21T07:09:43.336Z,84.31
2019-01-21T07:12:43.123Z,84.40
2019-01-21T07:15:40.350Z,84.21
2019-01-21T07:19:10.956Z,83.87
2019-01-21T07:22:14.620Z,83.83
2019-01-21T07:24:51.025Z,84.85
2019-01-21T07:28:16.978Z,84.97
2019-01-21T07:31:20.074Z,84.62
2019-01-21T07:34:00.961Z,84.02
2019-01-21T07:36:44.715Z,84.03
2019-01-21T07:39:42.762Z,85.31
2019-01-21T07:42:38.885Z,85.08
2019-01-21T07:45:21.392Z,84.62
2019-01-21T07:48:27.929Z,84.47
2019-01-21T07:51:37.068Z,84.18
2019-01-21T07:54:40.606Z,84.13
2019-01-21T07:57:51.619Z,84.31
2019-01-21T08:00:55.745Z,84.54
2019-01-21T08:04:02.244Z,84.25
2019-01-21T08:07:04.174Z,85.13
2019-01-21T08:10:18.226Z,85.00
2019-01-21T08:13:18.431Z,85.13
2019-01-21T08:16:31.466Z,85.61
2019-01-21T08:19:27.411Z,85.95
2019-01-21T08:22:33.095Z,87.50
2019-01-21T08:25:26.391Z,87.05
2019-01-21T08:28:14.167Z,86.85
2019-01-21T08:31:10.498Z,86.85
2019-01-21T08:34:17.478Z,87.69
2019-01-21T08:37:37.376Z,88.88
2019-01-21T08:41:09.419Z,89.06
2019-01-21T08:43:53.677Z,89.37
2019-01-21T08:46:53.718Z,90.46
2019-01-21T08:50:02.344Z,90.79
2019-01-21T08:53:05.863Z,91.04
2019-01-21T08:56:16.138Z,91.13
2019-01-21T08:59:07.751Z,91.09
2019-01-21T09:02:30.611Z,91.70
2019-01-21T09:05:36.564Z,91.31
2019-01-21T09:08:37.864Z,90.58
2019-01-21T09:11:39.561Z,89.92
2019-01-21T09:14:33.325Z,89.39
2019-01-21T09:17:16.058Z,88.94
2019-01-21T09:20:21.718Z,88.79
2019-01-21T09:23:03.031Z,89.09
2019-01-21T09:26:19.936Z,88.64
2019-01-21T09:29:24.589Z,88.14
2019-01-21T09:32:11.745Z,88.35
2019-01-21T09:35:12.103Z,87.66
2019-01-21T09:38:05.212Z,87.85
2019-01-21T09:41:34.992Z,87.77
2019-01-21T09:45:04.208Z,89.61
2019-01-21T09:47:32.529Z,89.73
2019-01-21T09:50:02.234Z,90.34
2019-01-21T09:52:32.146Z,90.26
2019-01-21T09:55:01.953Z,90.27
2019-01-21T09:57:33.469Z,90.91
2019-01-21T10:00:05.174Z,91.22
2019-01-21T10:02:40.263Z,91.51
2019-01-21T10:05:12.757Z,89.60
2019-01-21T10:07:47.658Z,90.51
2019-01-21T10:10:43.818Z,89.93
2019-01-21T10:13:57.699Z,89.65
2019-01-21T10:16:47.431Z,89.18
2019-01-21T10:19:58.776Z,90.52
2019-01-21T10:22:49.947Z,89.74
2019-01-21T10:25:47.803Z,90.20
2019-01-21T10:28:49.943Z,90.70
2019-01-21T10:32:08.092Z,90.58
2019-01-21T10:35:02.754Z,89.29
2019-01-21T10:38:13.050Z,88.20
2019-01-21T10:41:11.777Z,89.01
2019-01-21T10:44:13.042Z,88.81
2019-01-21T10:47:14.172Z,89.44
2019-01-21T10:50:17.663Z,89.37
2019-01-21T10:53:01.926Z,89.92
2019-01-21T10:56:15.790Z,89.27
2019-01-21T10:59:17.229Z,89.25
2019-01-21T11:02:35.054Z,88.62
2019-01-21T11:05:28.690Z,88.76
2019-01-21T11:08:18.456Z,88.44
2019-01-21T11:11:05.749Z,88.67
2019-01-21T11:14:01.230Z,89.47
2019-01-21T11:16:58.160Z,89.57
2019-01-21T11:20:04.157Z,88.97
2019-01-21T11:22:51.993Z,89.02
2019-01-21T11:26:18.268Z,88.27
2019-01-21T11:29:16.099Z,88.27
2019-01-21T11:32:33.526Z,88.83
2019-01-21T11:35:26.185Z,88.02
2019-01-21T11:38:17.726Z,88.27
2019-01-21T11:41:11.793Z,87.77
2019-01-21T11:44:07.378Z,87.79
2019-01-21T11:47:36.372Z,88.51
2019-01-21T11:50:36.248Z,88.09
2019-01-21T11:53:31.478Z,87.34
2019-01-21T11:56:28.190Z,87.13
2019-01-21T11:59:25.268Z,87.05
2019-01-21T12:02:25.921Z,87.83
2019-01-21T12:05:17.648Z,87.27
2019-01-21T12:08:43.204Z,86.48
2019-01-21T12:11:28.305Z,86.19
2019-01-21T12:14:25.382Z,85.39
2019-01-21T12:17:40.357Z,85.66
2019-01-21T12:20:54.184Z,86.20
2019-01-21T12:24:08.329Z,84.97
2019-01-21T12:27:18.762Z,84.50
2019-01-21T12:30:34.069Z,84.41
2019-01-21T12:33:50.249Z,84.14
2019-01-21T12:36:37.313Z,84.45
2019-01-21T12:39:49.978Z,84.13
2019-01-21T12:43:09.470Z,83.38
2019-01-21T12:46:14.102Z,82.74
2019-01-21T12:49:07.123Z,83.45
2019-01-21T12:52:26.924Z,83.25
2019-01-21T12:55:37.324Z,83.65
2019-01-21T12:58:41.605Z,83.01
2019-01-21T13:01:17.294Z,82.77
2019-01-21T13:04:46.387Z,83.91
2019-01-21T13:07:42.412Z,84.24
2019-01-21T13:10:50.204Z,84.38
2019-01-21T13:13:43.212Z,83.53
2019-01-21T13:16:27.774Z,83.10
2019-01-21T13:19:47.748Z,83.18
2019-01-21T13:22:54.639Z,83.00
2019-01-21T13:25:46.391Z,83.28
2019-01-21T13:28:52.590Z,83.07
2019-01-21T13:32:00.737Z,83.58
2019-01-21T13:35:13.675Z,83.32
2019-01-21T13:38:26.874Z,83.81
2019-01-21T13:41:31.972Z,83.75
2019-01-21T13:44:28.244Z,84.16
2019-01-21T13:47:26.513Z,84.98
2019-01-21T13:50:13.983Z,86.33
2019-01-21T13:53:26.460Z,86.91
2019-01-21T13:56:25.205Z,87.06
2019-01-21T13:59:34.323Z,87.72
2019-01-21T14:02:13.268Z,87.70
2019-01-21T14:05:20.661Z,87.54
2019-01-21T14:08:15.796Z,87.31
2019-01-21T14:11:13.741Z,86.93
2019-01-21T14:13:54.919Z,88.12
2019-01-21T14:16:45.647Z,88.00
2019-01-21T14:19:36.603Z,87.92
2019-01-21T14:22:47.617Z,88.25
2019-01-21T14:26:10.325Z,87.42
2019-01-21T14:29:30.365Z,88.53
2019-01-21T14:32:24.935Z,87.83
2019-01-21T14:35:34.907Z,87.57
2019-01-21T14:38:52.861Z,87.48
2019-01-21T14:42:10.832Z,86.74
2019-01-21T14:45:28.257Z,86.91
2019-01-21T14:48:50.923Z,87.07
2019-01-21T14:52:00.807Z,87.17
2019-01-21T14:54:40.195Z,87.27
2019-01-21T14:57:35.171Z,86.90
2019-01-21T15:00:32.339Z,86.60
2019-01-21T15:03:43.757Z,85.83
2019-01-21T15:07:04.499Z,86.55
2019-01-21T15:09:48.752Z,86.26
2019-01-21T15:12:50.125Z,86.52
2019-01-21T15:15:45.772Z,86.84
2019-01-21T15:18:52.706Z,86.91
2019-01-21T15:22:12.792Z,86.68
2019-01-21T15:25:18.132Z,86.22
2019-01-21T15:28:19.252Z,86.11
2019-01-21T15:31:35.304Z,86.17
2019-01-21T15:34:12.926Z,86.39
2019-01-21T15:37:27.197Z,86.24
2019-01-21T15:40:47.429Z,85.89
2019-01-21T15:43:47.950Z,85.39
2019-01-21T15:46:59.769Z,85.08
2019-01-21T15:49:50.179Z,85.30
2019-01-21T15:52:34.840Z,84.87
2019-01-21T15:55:33.240Z,84.96
2019-01-21T15:58:47.767Z,85.16
2019-01-21T16:01:53.047Z,85.12
2019-01-21T16:04:46.151Z,85.21
2019-01-21T16:07:52.154Z,84.33
2019-01-21T16:11:05.064Z,84.32
2019-01-21T16:13:50.833Z,84.38
2019-01-21T16:16:54.226Z,83.75
2019-01-21T16:19:35.255Z,84.42
2019-01-21T16:22:42.343Z,83.97
2019-01-21T16:25:39.827Z,83.73
2019-01-21T16:28:33.935Z,84.53
2019-01-21T16:31:11.665Z,83.72
2019-01-21T16:34:19.516Z,83.93
2019-01-21T16:37:27.818Z,84.01
2019-01-21T16:40:19.547Z,84.03
2019-01-21T16:42:49.275Z,83.99
2019-01-21T16:45:18.922Z,83.84
2019-01-21T16:47:48.628Z,83.77
2019-01-21T16:50:18.324Z,83.66
2019-01-21T16:52:48.048Z,83.51
2019-01-21T16:55:17.665Z,83.50
2019-01-21T16:57:47.278Z,83.74
2019-01-21T17:00:16.951Z,83.41
2019-01-21T17:02:46.695Z,83.79
2019-01-21T17:05:16.394Z,83.49
2019-01-21T17:07:46.350Z,83.97
2019-01-21T17:10:16.072Z,83.60
2019-01-21T17:12:45.790Z,84.01
2019-01-21T17:15:15.595Z,84.44
2019-01-21T17:17:46.355Z,84.23
2019-01-21T17:20:18.505Z,84.31
2019-01-21T17:22:48.243Z,84.41
2019-01-21T17:25:18.117Z,84.61
2019-01-21T17:27:47.810Z,85.12
2019-01-21T17:30:17.578Z,85.67
2019-01-21T17:32:47.183Z,85.17
2019-01-21T17:35:16.958Z,84.67
2019-01-21T17:37:46.686Z,84.61
2019-01-21T17:40:17.640Z,84.46
2019-01-21T17:42:47.388Z,84.06
2019-01-21T17:45:18.536Z,84.27
2019-01-21T17:47:48.251Z,84.26
2019-01-21T17:50:18.666Z,84.15
2019-01-21T17:52:48.351Z,84.35
2019-01-21T17:55:18.057Z,84.34
2019-01-21T17:57:47.742Z,84.19
2019-01-21T18:00:21.937Z,84.57
2019-01-21T18:02:51.525Z,84.82
2019-01-21T18:05:21.321Z,84.33
2019-01-21T18:07:50.934Z,84.69
2019-01-21T18:10:21.296Z,84.73
2019-01-21T18:12:50.994Z,84.77
2019-01-21T18:15:20.712Z,85.10
2019-01-21T18:17:50.395Z,84.82
2019-01-21T18:20:23.071Z,84.54
2019-01-21T18:22:52.826Z,84.34
2019-01-21T18:25:22.455Z,84.68
2019-01-21T18:27:52.072Z,84.72
2019-01-21T18:30:24.240Z,84.53
2019-01-21T18:32:53.969Z,83.86
2019-01-21T18:35:23.686Z,84.18
2019-01-21T18:37:53.423Z,84.54
2019-01-21T18:40:23.534Z,84.38
2019-01-21T18:42:53.216Z,84.68
2019-01-21T18:45:25.593Z,84.66
2019-01-21T18:47:55.284Z,85.04
2019-01-21T18:50:24.958Z,84.94
2019-01-21T18:52:54.935Z,85.64
2019-01-21T18:55:24.705Z,84.94
2019-01-21T18:57:55.988Z,84.88
2019-01-21T19:00:26.693Z,85.00
2019-01-21T19:02:56.377Z,84.76
2019-01-21T19:05:26.101Z,84.42
2019-01-21T19:07:55.745Z,84.16
2019-01-21T19:10:25.519Z,84.38
2019-01-21T19:12:55.309Z,84.93
2019-01-21T19:15:30.595Z,84.91
2019-01-21T19:18:00.585Z,84.45
2019-01-21T19:20:30.987Z,84.68
2019-01-21T19:23:00.785Z,84.46
2019-01-21T19:25:31.180Z,84.83
2019-01-21T19:28:01.898Z,85.09
2019-01-21T19:30:31.737Z,85.22
2019-01-21T19:33:01.837Z,84.89
2019-01-21T19:35:34.300Z,84.70
2019-01-21T19:38:04.062Z,85.09
2019-01-21T19:40:33.849Z,85.35
2019-01-21T19:43:03.712Z,85.77
2019-01-21T19:45:33.387Z,85.63
2019-01-21T19:48:03.028Z,85.47
2019-01-21T19:50:32.729Z,85.41
2019-01-21T19:53:02.455Z,85.33
2019-01-21T19:55:40.627Z,85.17
2019-01-21T19:58:12.062Z,85.26
2019-01-21T20:00:41.810Z,86.27
2019-01-21T20:03:11.606Z,87.37
2019-01-21T20:05:41.219Z,87.58
2019-01-21T20:08:10.937Z,87.58
2019-01-21T20:10:40.675Z,87.88
2019-01-21T20:13:10.286Z,87.78
2019-01-21T20:15:39.969Z,87.75
2019-01-21T20:18:09.720Z,87.62
2019-01-21T20:20:41.111Z,87.27
2019-01-21T20:23:10.905Z,86.78
2019-01-21T20:25:40.589Z,86.65
2019-01-21T20:28:10.270Z,87.26
2019-01-21T20:30:39.875Z,86.88
2019-01-21T20:33:09.610Z,86.80
2019-01-21T20:35:39.434Z,87.30
2019-01-21T20:38:09.247Z,87.03
2019-01-21T20:40:38.930Z,87.09
2019-01-21T20:43:08.557Z,86.82
2019-01-21T20:45:38.163Z,86.66
2019-01-21T20:48:07.816Z,86.85
2019-01-21T20:50:37.442Z,87.45
2019-01-21T20:53:07.153Z,87.79
2019-01-21T20:55:36.967Z,87.95
2019-01-21T20:58:06.794Z,88.40
2019-01-21T21:00:36.433Z,87.92
2019-01-21T21:03:06.241Z,87.86
2019-01-21T21:05:36.387Z,88.49
2019-01-21T21:08:06.367Z,88.12
2019-01-21T21:10:40.821Z,88.26
2019-01-21T21:13:10.863Z,87.96
2019-01-21T21:15:40.923Z,88.03
2019-01-21T21:18:11.083Z,88.02
2019-01-21T21:20:41.225Z,87.96
2019-01-21T21:23:14.459Z,87.97
2019-01-21T21:25:44.425Z,88.44
2019-01-21T21:28:14.448Z,88.22
2019-01-21T21:30:44.435Z,88.81
2019-01-21T21:33:14.509Z,88.10
2019-01-21T21:35:44.469Z,88.07
2019-01-21T21:38:14.413Z,87.79
2019-01-21T21:40:44.417Z,87.16
2019-01-21T21:43:14.381Z,87.11
2019-01-21T21:45:44.443Z,86.85
2019-01-21T21:48:14.469Z,87.30
2019-01-21T21:50:44.519Z,87.40
2019-01-21T21:53:14.489Z,87.29
2019-01-21T21:55:45.009Z,87.48
2019-01-21T21:58:15.371Z,87.12
2019-01-21T22:00:45.721Z,87.41
2019-01-21T22:03:18.946Z,87.26
2019-01-21T22:05:51.086Z,87.18
2019-01-21T22:08:21.531Z,87.56
2019-01-21T22:10:51.536Z,87.46
2019-01-21T22:13:21.582Z,87.48
2019-01-21T22:15:51.499Z,87.45
2019-01-21T22:18:21.497Z,87.01
2019-01-21T22:20:51.445Z,86.61
2019-01-21T22:23:21.438Z,86.26
2019-01-21T22:25:51.084Z,86.25
2019-01-21T22:28:20.743Z,86.29
2019-01-21T22:30:50.445Z,86.59
2019-01-21T22:33:20.064Z,86.47
2019-01-21T22:35:49.734Z,86.40
2019-01-21T22:38:19.434Z,86.62
2019-01-21T22:40:49.536Z,86.40
2019-01-21T22:43:19.159Z,86.57
2019-01-21T22:45:48.761Z,86.95
2019-01-21T22:48:18.383Z,87.40
2019-01-21T22:50:48.013Z,87.15
2019-01-21T22:53:17.625Z,87.27
2019-01-21T22:55:47.216Z,87.22
2019-01-21T22:58:16.862Z,87.23
2019-01-21T23:00:55.820Z,87.37
2019-01-21T23:03:26.482Z,87.47
2019-01-21T23:05:56.092Z,87.12
2019-01-21T23:08:25.813Z,87.13
2019-01-21T23:10:55.457Z,87.16
2019-01-21T23:13:25.236Z,87.05
2019-01-21T23:15:56.617Z,86.97
2019-01-21T23:18:26.246Z,86.90
2019-01-21T23:20:55.854Z,86.71
2019-01-21T23:23:28.017Z,87.25
2019-01-21T23:26:03.355Z,87.00
2019-01-21T23:28:36.311Z,86.71
2019-01-21T23:31:16.210Z,86.55
2019-01-21T23:33:48.784Z,86.72
2019-01-21T23:36:18.507Z,86.63
2019-01-21T23:38:48.179Z,86.67
2019-01-21T23:41:18.198Z,86.56
2019-01-21T23:43:47.826Z,86.49
2019-01-21T23:46:17.603Z,86.67
2019-01-21T23:48:47.196Z,87.04
2019-01-21T23:51:16.848Z,86.61
2019-01-21T23:53:46.700Z,86.37
2019-01-21T23:56:16.704Z,86.97
2019-01-21T23:58:46.300Z,87.12
